createdAt,value
2019-05-17T00:00:40.483Z,123.50
2019-05-17T00:01:40.474Z,117.20
2019-05-17T00:02:40.474Z,102.50
2019-05-17T00:03:40.451Z,112.30
2019-05-17T00:04:40.499Z,116.40
2019-05-17T00:05:40.427Z,120.90
2019-05-17T00:06:40.422Z,113.30
2019-05-17T00:07:40.417Z,117.60
2019-05-17T00:08:40.408Z,114.00
2019-05-17T00:09:40.388Z,111.60
2019-05-17T00:10:40.421Z,111.30
2019-05-17T00:11:40.371Z,108.70
2019-05-17T00:12:40.358Z,99.40
2019-05-17T00:13:40.344Z,91.80
2019-05-17T00:14:40.334Z,122.70
2019-05-17T00:15:40.355Z,94.30
2019-05-17T00:16:40.314Z,101.60
2019-05-17T00:17:40.305Z,107.30
2019-05-17T00:18:40.298Z,99.80
2019-05-17T00:19:40.285Z,97.90
2019-05-17T00:20:40.300Z,97.20
2019-05-17T00:21:40.262Z,91.10
2019-05-17T00:22:40.257Z,89.90
2019-05-17T00:23:40.247Z,97.00
2019-05-17T00:24:40.228Z,92.60
2019-05-17T00:25:40.247Z,97.00
2019-05-17T00:26:40.207Z,101.40
2019-05-17T00:27:40.199Z,92.50
2019-05-17T00:28:40.182Z,106.20
2019-05-17T00:29:40.174Z,99.90
2019-05-17T00:30:40.190Z,109.20
2019-05-17T00:31:40.159Z,99.60
2019-05-17T00:32:40.153Z,100.60
2019-05-17T00:33:40.135Z,86.70
2019-05-17T00:34:40.125Z,102.20
2019-05-17T00:35:40.151Z,94.80
2019-05-17T00:36:40.107Z,102.80
2019-05-17T00:37:40.098Z,97.30
2019-05-17T00:38:48.388Z,106.50
2019-05-17T00:39:41.067Z,101.90
2019-05-17T00:40:40.095Z,89.00
2019-05-17T00:41:40.047Z,102.20
2019-05-17T00:42:40.039Z,93.60
2019-05-17T00:43:40.026Z,90.60
2019-05-17T00:44:40.017Z,87.70
2019-05-17T00:45:40.007Z,96.60
2019-05-17T00:46:40.027Z,90.40
2019-05-17T00:47:39.984Z,85.40
2019-05-17T00:48:39.976Z,90.60
2019-05-17T00:49:39.970Z,91.70
2019-05-17T00:50:39.958Z,93.80
2019-05-17T00:51:39.966Z,96.20
2019-05-17T00:52:39.932Z,99.60
2019-05-17T00:53:39.925Z,93.80
2019-05-17T00:54:39.915Z,86.20
2019-05-17T00:55:39.901Z,101.60
2019-05-17T00:56:39.914Z,99.10
2019-05-17T00:57:39.879Z,80.90
2019-05-17T00:58:39.869Z,96.70
2019-05-17T00:59:39.857Z,98.20
2019-05-17T01:00:39.852Z,101.60
2019-05-17T01:01:39.866Z,109.10
2019-05-17T01:02:39.823Z,112.40
2019-05-17T01:03:39.814Z,112.90
2019-05-17T01:04:39.829Z,112.20
2019-05-17T01:05:39.791Z,91.60
2019-05-17T01:06:39.806Z,103.40
2019-05-17T01:07:39.772Z,107.30
2019-05-17T01:08:39.763Z,99.90
2019-05-17T01:09:39.751Z,103.50
2019-05-17T01:10:39.744Z,106.10
2019-05-17T01:11:39.758Z,101.80
2019-05-17T01:12:39.722Z,104.80
2019-05-17T01:13:39.710Z,93.50
2019-05-17T01:14:50.643Z,102.50
2019-05-17T01:15:39.689Z,86.40
2019-05-17T01:16:39.699Z,97.20
2019-05-17T01:17:39.667Z,92.60
2019-05-17T01:18:39.650Z,102.60
2019-05-17T01:19:39.646Z,94.90
2019-05-17T01:20:39.638Z,101.70
2019-05-17T01:21:39.646Z,97.60
2019-05-17T01:22:39.614Z,97.40
2019-05-17T01:23:39.611Z,90.50
2019-05-17T01:24:39.592Z,92.70
2019-05-17T01:25:39.581Z,99.40
2019-05-17T01:26:39.617Z,96.90
2019-05-17T01:27:39.562Z,94.40
2019-05-17T01:28:39.550Z,100.60
2019-05-17T01:29:39.535Z,92.60
2019-05-17T01:30:39.526Z,88.70
2019-05-17T01:31:39.519Z,86.40
2019-05-17T01:32:39.532Z,91.40
2019-05-17T01:33:39.496Z,88.80
2019-05-17T01:34:39.493Z,85.90
2019-05-17T01:35:39.475Z,87.00
2019-05-17T01:36:39.468Z,105.40
2019-05-17T01:37:39.480Z,87.80
2019-05-17T01:38:39.439Z,90.10
2019-05-17T01:39:39.432Z,90.60
2019-05-17T01:40:39.433Z,92.10
2019-05-17T01:41:39.406Z,88.10
2019-05-17T01:42:39.432Z,87.60
2019-05-17T01:43:39.400Z,83.70
2019-05-17T01:44:39.375Z,84.20
2019-05-17T01:45:39.367Z,86.90
2019-05-17T01:46:39.365Z,82.10
2019-05-17T01:47:39.380Z,79.90
2019-05-17T01:48:39.335Z,84.00
2019-05-17T01:49:39.322Z,84.60
2019-05-17T01:50:39.316Z,77.30
2019-05-17T01:51:39.307Z,82.20
2019-05-17T01:52:39.332Z,82.10
2019-05-17T01:53:39.283Z,78.00
2019-05-17T01:54:39.275Z,73.10
2019-05-17T01:55:39.262Z,72.90
2019-05-17T01:56:39.255Z,72.80
2019-05-17T01:57:39.239Z,70.10
2019-05-17T01:58:39.260Z,87.60
2019-05-17T01:59:39.219Z,81.40
2019-05-17T02:00:39.214Z,77.90
2019-05-17T02:01:39.200Z,75.30
2019-05-17T02:02:39.188Z,79.20
2019-05-17T02:03:39.204Z,80.70
2019-05-17T02:04:39.167Z,80.70
2019-05-17T02:05:39.159Z,75.60
2019-05-17T02:06:39.147Z,83.80
2019-05-17T02:07:39.136Z,81.50
2019-05-17T02:08:39.147Z,79.70
2019-05-17T02:09:41.814Z,75.60
2019-05-17T02:10:39.103Z,85.00
2019-05-17T02:11:39.100Z,82.20
2019-05-17T02:12:39.096Z,92.00
2019-05-17T02:13:39.095Z,82.70
2019-05-17T02:14:39.061Z,77.10
2019-05-17T02:15:39.053Z,77.00
2019-05-17T02:16:39.041Z,79.40
2019-05-17T02:17:39.028Z,79.20
2019-05-17T02:18:39.047Z,93.40
2019-05-17T02:19:39.008Z,82.80
2019-05-17T02:20:38.998Z,85.30
2019-05-17T02:21:39.252Z,88.70
2019-05-17T02:22:38.979Z,87.70
2019-05-17T02:23:38.995Z,84.20
2019-05-17T02:24:38.951Z,94.80
2019-05-17T02:25:38.947Z,84.70
2019-05-17T02:26:38.931Z,83.90
2019-05-17T02:27:41.923Z,78.70
2019-05-17T02:28:41.435Z,79.30
2019-05-17T02:29:38.897Z,80.70
2019-05-17T02:30:38.892Z,84.90
2019-05-17T02:31:38.877Z,95.00
2019-05-17T02:32:38.876Z,80.80
2019-05-17T02:33:38.888Z,91.20
2019-05-17T02:34:38.855Z,83.90
2019-05-17T02:35:38.839Z,85.40
2019-05-17T02:36:38.827Z,73.60
2019-05-17T02:37:38.816Z,82.30
2019-05-17T02:38:38.848Z,87.20
2019-05-17T02:39:56.561Z,76.40
2019-05-17T02:40:42.822Z,80.50
2019-05-17T02:41:38.771Z,73.60
2019-05-17T02:42:38.764Z,91.40
2019-05-17T02:43:38.751Z,85.10
2019-05-17T02:44:38.766Z,87.30
2019-05-17T02:45:38.732Z,85.30
2019-05-17T02:46:38.724Z,83.20
2019-05-17T02:47:38.707Z,70.70
2019-05-17T02:48:38.698Z,71.40
2019-05-17T02:49:38.721Z,82.10
2019-05-17T02:50:38.682Z,74.00
2019-05-17T02:51:38.675Z,72.60
2019-05-17T02:52:46.689Z,70.70
2019-05-17T02:53:38.651Z,79.00
2019-05-17T02:54:38.664Z,82.10
2019-05-17T02:55:38.631Z,72.30
2019-05-17T02:56:38.617Z,76.50
2019-05-17T02:57:38.605Z,67.60
2019-05-17T02:58:38.604Z,70.20
2019-05-17T02:59:38.615Z,74.20
2019-05-17T03:00:38.583Z,71.30
2019-05-17T03:01:38.560Z,71.80
2019-05-17T03:02:38.553Z,74.80
2019-05-17T03:03:38.538Z,67.10
2019-05-17T03:04:38.566Z,79.50
2019-05-17T03:05:38.523Z,72.40
2019-05-17T03:06:38.511Z,70.60
2019-05-17T03:07:38.499Z,72.50
2019-05-17T03:08:38.512Z,69.70
2019-05-17T03:09:38.482Z,72.50
2019-05-17T03:10:38.500Z,70.60
2019-05-17T03:11:38.463Z,68.80
2019-05-17T03:12:38.449Z,68.60
2019-05-17T03:13:38.437Z,63.80
2019-05-17T03:14:38.435Z,63.60
2019-05-17T03:15:38.438Z,65.40
2019-05-17T03:16:38.402Z,65.30
2019-05-17T03:17:38.394Z,62.30
2019-05-17T03:18:38.381Z,67.10
2019-05-17T03:19:38.371Z,63.00
2019-05-17T03:20:38.385Z,69.00
2019-05-17T03:21:38.350Z,60.80
2019-05-17T03:22:38.344Z,66.90
2019-05-17T03:23:38.333Z,64.80
2019-05-17T03:24:38.337Z,62.60
2019-05-17T03:25:38.320Z,58.00
2019-05-17T03:26:38.301Z,63.40
2019-05-17T03:27:38.289Z,61.10
2019-05-17T03:28:38.272Z,61.10
2019-05-17T03:29:38.269Z,63.20
2019-05-17T03:30:38.285Z,63.60
2019-05-17T03:31:44.876Z,59.50
2019-05-17T03:32:39.234Z,59.10
2019-05-17T03:33:38.222Z,68.50
2019-05-17T03:34:38.212Z,66.70
2019-05-17T03:35:38.873Z,64.40
2019-05-17T03:36:38.213Z,59.40
2019-05-17T03:37:38.322Z,60.10
2019-05-17T03:38:38.175Z,59.40
2019-05-17T03:39:38.168Z,63.40
2019-05-17T03:41:03.637Z,62.50
2019-05-17T03:41:39.136Z,61.70
2019-05-17T03:42:38.125Z,59.90
2019-05-17T03:43:41.256Z,58.10
2019-05-17T03:44:39.106Z,59.20
2019-05-17T03:45:38.128Z,60.60
2019-05-17T03:46:38.088Z,61.20
2019-05-17T03:47:38.075Z,60.10
2019-05-17T03:48:38.061Z,58.10
2019-05-17T03:49:39.529Z,57.00
2019-05-17T03:50:38.083Z,57.90
2019-05-17T03:51:38.050Z,54.60
2019-05-17T03:52:38.030Z,51.20
2019-05-17T03:53:38.008Z,51.80
2019-05-17T03:54:38.001Z,49.40
2019-05-17T03:55:37.995Z,48.10
2019-05-17T03:56:38.012Z,50.30
2019-05-17T03:57:37.968Z,47.10
2019-05-17T03:58:37.952Z,50.20
2019-05-17T03:59:37.949Z,49.70
2019-05-17T04:00:37.932Z,49.90
2019-05-17T04:01:37.953Z,50.90
2019-05-17T04:02:37.911Z,45.10
2019-05-17T04:03:37.903Z,45.50
2019-05-17T04:04:37.900Z,46.10
2019-05-17T04:05:37.881Z,45.40
2019-05-17T04:06:37.903Z,51.10
2019-05-17T04:07:37.871Z,48.60
2019-05-17T04:08:37.852Z,50.50
2019-05-17T04:09:37.955Z,49.90
2019-05-17T04:10:37.835Z,47.80
2019-05-17T04:11:37.848Z,51.20
2019-05-17T04:12:37.812Z,49.30
2019-05-17T04:13:37.823Z,47.80
2019-05-17T04:14:37.937Z,49.10
2019-05-17T04:15:37.778Z,48.60
2019-05-17T04:16:37.830Z,48.40
2019-05-17T04:17:37.831Z,43.20
2019-05-17T04:18:37.755Z,46.70
2019-05-17T04:19:37.736Z,47.50
2019-05-17T04:20:37.725Z,45.90
2019-05-17T04:21:37.713Z,47.00
2019-05-17T04:22:37.729Z,47.00
2019-05-17T04:23:37.688Z,47.90
2019-05-17T04:24:37.680Z,46.40
2019-05-17T04:25:38.805Z,49.70
2019-05-17T04:26:37.659Z,45.50
2019-05-17T04:27:37.675Z,46.20
2019-05-17T04:28:37.637Z,46.20
2019-05-17T04:29:37.628Z,46.30
2019-05-17T04:30:37.618Z,45.30
2019-05-17T04:31:37.604Z,47.30
2019-05-17T04:32:37.624Z,46.50
2019-05-17T04:33:37.591Z,44.50
2019-05-17T04:34:37.575Z,49.60
2019-05-17T04:35:37.565Z,45.40
2019-05-17T04:36:37.561Z,49.60
2019-05-17T04:37:38.558Z,48.70
2019-05-17T04:38:37.534Z,48.10
2019-05-17T04:39:37.535Z,47.50
2019-05-17T04:40:37.508Z,44.60
2019-05-17T04:41:45.398Z,47.40
2019-05-17T04:42:38.524Z,50.80
2019-05-17T04:43:37.488Z,43.60
2019-05-17T04:44:37.464Z,43.20
2019-05-17T04:45:37.470Z,44.40
2019-05-17T04:46:37.452Z,42.90
2019-05-17T04:47:37.455Z,42.10
2019-05-17T04:48:37.429Z,42.00
2019-05-17T04:49:37.416Z,42.50
2019-05-17T04:50:37.411Z,43.80
2019-05-17T04:51:37.397Z,42.40
2019-05-17T04:52:37.410Z,44.30
2019-05-17T04:53:37.374Z,45.20
2019-05-17T04:54:37.364Z,46.50
2019-05-17T04:55:37.347Z,44.40
2019-05-17T04:56:37.343Z,45.00
2019-05-17T04:57:37.357Z,46.20
2019-05-17T04:58:37.316Z,39.80
2019-05-17T04:59:37.317Z,43.50
2019-05-17T05:00:37.303Z,43.50
2019-05-17T05:01:37.290Z,43.50
2019-05-17T05:02:37.335Z,45.20
2019-05-17T05:03:37.270Z,40.50
2019-05-17T05:04:38.599Z,38.10
2019-05-17T05:05:37.248Z,41.70
2019-05-17T05:06:37.230Z,41.00
2019-05-17T05:07:37.219Z,41.00
2019-05-17T05:08:37.235Z,39.40
2019-05-17T05:09:37.201Z,38.70
2019-05-17T05:10:38.594Z,39.40
2019-05-17T05:11:52.119Z,37.10
2019-05-17T05:12:38.170Z,37.70
2019-05-17T05:13:37.315Z,37.30
2019-05-17T05:14:37.251Z,35.70
2019-05-17T05:15:37.236Z,35.20
2019-05-17T05:16:37.125Z,34.20
2019-05-17T05:17:37.180Z,33.10
2019-05-17T05:18:37.260Z,35.10
2019-05-17T05:19:37.234Z,35.00
2019-05-17T05:20:37.086Z,34.00
2019-05-17T05:21:37.076Z,28.40
2019-05-17T05:22:37.064Z,31.60
2019-05-17T05:23:37.078Z,31.00
2019-05-17T05:24:37.051Z,29.50
2019-05-17T05:25:37.032Z,29.90
2019-05-17T05:26:37.023Z,32.20
2019-05-17T05:27:37.011Z,30.40
2019-05-17T05:28:37.022Z,30.50
2019-05-17T05:29:36.983Z,30.80
2019-05-17T05:30:36.975Z,29.30
2019-05-17T05:31:36.969Z,29.00
2019-05-17T05:32:36.954Z,30.00
2019-05-17T05:33:36.977Z,29.60
2019-05-17T05:34:36.939Z,32.20
2019-05-17T05:35:36.923Z,31.40
2019-05-17T05:36:36.916Z,30.30
2019-05-17T05:37:36.902Z,30.80
2019-05-17T05:38:36.928Z,32.60
2019-05-17T05:39:36.883Z,28.50
2019-05-17T05:40:36.880Z,28.40
2019-05-17T05:41:36.858Z,27.20
2019-05-17T05:42:36.852Z,25.30
2019-05-17T05:43:36.889Z,26.70
2019-05-17T05:44:36.825Z,28.90
2019-05-17T05:45:36.815Z,27.70
2019-05-17T05:46:36.804Z,26.30
2019-05-17T05:47:36.791Z,26.30
2019-05-17T05:48:36.783Z,28.80
2019-05-17T05:49:36.804Z,26.20
2019-05-17T05:50:36.762Z,28.70
2019-05-17T05:51:36.746Z,25.30
2019-05-17T05:52:36.743Z,26.80
2019-05-17T05:53:36.734Z,26.30
2019-05-17T05:54:36.742Z,25.80
2019-05-17T05:55:36.710Z,27.20
2019-05-17T05:56:36.697Z,28.00
2019-05-17T05:57:36.687Z,28.10
2019-05-17T05:58:36.677Z,29.80
2019-05-17T05:59:36.691Z,29.30
2019-05-17T06:00:36.654Z,29.50
2019-05-17T06:01:36.639Z,29.60
2019-05-17T06:02:36.636Z,29.00
2019-05-17T06:03:36.621Z,25.30
2019-05-17T06:04:36.637Z,28.50
2019-05-17T06:05:36.598Z,31.90
2019-05-17T06:06:36.587Z,26.70
2019-05-17T06:07:36.577Z,23.70
2019-05-17T06:08:36.568Z,26.40
2019-05-17T06:09:36.583Z,25.00
2019-05-17T06:10:39.429Z,24.50
2019-05-17T06:11:36.539Z,24.70
2019-05-17T06:12:36.537Z,23.60
2019-05-17T06:13:36.510Z,25.70
2019-05-17T06:14:36.546Z,20.40
2019-05-17T06:15:36.491Z,23.30
2019-05-17T06:16:36.490Z,22.10
2019-05-17T06:17:36.471Z,21.10
2019-05-17T06:18:36.465Z,18.80
2019-05-17T06:19:36.451Z,20.30
2019-05-17T06:20:36.470Z,19.30
2019-05-17T06:21:36.434Z,18.80
2019-05-17T06:22:36.420Z,19.70
2019-05-17T06:23:36.421Z,21.20
2019-05-17T06:24:36.400Z,19.00
2019-05-17T06:25:36.416Z,21.20
2019-05-17T06:26:36.383Z,20.00
2019-05-17T06:27:36.370Z,18.50
2019-05-17T06:28:36.360Z,19.40
2019-05-17T06:29:36.350Z,18.50
2019-05-17T06:30:36.366Z,18.20
2019-05-17T06:31:37.044Z,19.30
2019-05-17T06:32:36.318Z,21.80
2019-05-17T06:33:36.306Z,21.40
2019-05-17T06:34:36.292Z,20.00
2019-05-17T06:35:36.310Z,18.80
2019-05-17T06:36:36.277Z,19.70
2019-05-17T06:37:36.260Z,18.00
2019-05-17T06:38:36.259Z,18.30
2019-05-17T06:39:36.245Z,18.50
2019-05-17T06:40:36.260Z,19.70
2019-05-17T06:41:36.233Z,17.00
2019-05-17T06:42:41.169Z,18.20
2019-05-17T06:43:38.586Z,16.00
2019-05-17T06:44:36.185Z,16.80
2019-05-17T06:45:36.214Z,19.40
2019-05-17T06:46:36.170Z,18.50
2019-05-17T06:47:36.150Z,19.40
2019-05-17T06:48:36.153Z,16.20
2019-05-17T06:49:36.137Z,18.00
2019-05-17T06:50:36.142Z,16.10
2019-05-17T06:51:36.107Z,16.30
2019-05-17T06:52:36.099Z,17.10
2019-05-17T06:53:36.083Z,15.90
2019-05-17T06:54:36.075Z,17.90
2019-05-17T06:55:36.093Z,16.00
2019-05-17T06:56:36.055Z,16.30
2019-05-17T06:57:36.045Z,19.10
2019-05-17T06:58:36.041Z,15.30
2019-05-17T06:59:36.022Z,15.20
2019-05-17T07:00:36.039Z,16.20
2019-05-17T07:01:36.018Z,16.50
2019-05-17T07:02:36.232Z,16.20
2019-05-17T07:03:35.982Z,16.50
2019-05-17T07:04:35.969Z,16.80
2019-05-17T07:05:35.994Z,16.10
2019-05-17T07:06:35.950Z,17.30
2019-05-17T07:07:35.950Z,17.40
2019-05-17T07:08:35.950Z,18.60
2019-05-17T07:09:36.137Z,18.00
2019-05-17T07:10:35.904Z,18.10
2019-05-17T07:11:35.920Z,17.10
2019-05-17T07:12:35.896Z,18.80
2019-05-17T07:13:35.870Z,19.70
2019-05-17T07:14:35.858Z,19.70
2019-05-17T07:15:46.861Z,24.00
2019-05-17T07:16:36.863Z,22.70
2019-05-17T07:17:35.829Z,21.50
2019-05-17T07:18:35.821Z,21.20
2019-05-17T07:19:35.803Z,20.00
2019-05-17T07:20:35.853Z,21.70
2019-05-17T07:21:35.810Z,21.10
2019-05-17T07:22:35.776Z,19.90
2019-05-17T07:23:35.767Z,20.30
2019-05-17T07:24:35.768Z,22.60
2019-05-17T07:25:35.739Z,19.70
2019-05-17T07:26:35.789Z,19.80
2019-05-17T07:27:41.328Z,20.80
2019-05-17T07:28:36.711Z,21.50
2019-05-17T07:29:35.702Z,20.70
2019-05-17T07:30:35.695Z,21.70
2019-05-17T07:31:35.701Z,21.80
2019-05-17T07:32:35.667Z,19.10
2019-05-17T07:33:35.671Z,19.80
2019-05-17T07:34:35.639Z,20.20
2019-05-17T07:35:35.629Z,24.20
2019-05-17T07:36:35.650Z,22.50
2019-05-17T07:37:35.611Z,20.70
2019-05-17T07:38:35.601Z,20.60
2019-05-17T07:39:35.591Z,21.50
2019-05-17T07:40:35.581Z,22.80
2019-05-17T07:41:35.614Z,20.70
2019-05-17T07:42:35.566Z,22.50
2019-05-17T07:43:35.544Z,22.30
2019-05-17T07:44:35.535Z,21.40
2019-05-17T07:45:35.526Z,23.00
2019-05-17T07:46:35.514Z,21.20
2019-05-17T07:47:35.526Z,23.70
2019-05-17T07:48:35.491Z,20.00
2019-05-17T07:49:35.481Z,24.90
2019-05-17T07:50:35.478Z,20.20
2019-05-17T07:51:35.458Z,22.60
2019-05-17T07:52:35.476Z,22.30
2019-05-17T07:53:35.442Z,23.40
2019-05-17T07:54:35.425Z,25.10
2019-05-17T07:55:35.414Z,23.40
2019-05-17T07:56:35.412Z,23.70
2019-05-17T07:57:35.459Z,23.20
2019-05-17T07:58:35.390Z,24.00
2019-05-17T07:59:35.384Z,26.30
2019-05-17T08:00:35.363Z,23.30
2019-05-17T08:01:35.353Z,25.80
2019-05-17T08:02:35.375Z,24.40
2019-05-17T08:03:35.328Z,25.50
2019-05-17T08:04:35.322Z,25.90
2019-05-17T08:05:35.306Z,26.00
2019-05-17T08:06:35.295Z,25.70
2019-05-17T08:07:35.316Z,24.90
2019-05-17T08:08:35.283Z,26.80
2019-05-17T08:09:35.268Z,26.50
2019-05-17T08:10:35.257Z,26.30
2019-05-17T08:11:35.248Z,26.10
2019-05-17T08:12:35.291Z,26.80
2019-05-17T08:13:35.233Z,27.60
2019-05-17T08:14:35.236Z,26.50
2019-05-17T08:15:35.207Z,27.80
2019-05-17T08:16:35.194Z,26.30
2019-05-17T08:17:35.180Z,25.70
2019-05-17T08:18:35.195Z,26.80
2019-05-17T08:19:35.162Z,28.40
2019-05-17T08:20:35.150Z,25.70
2019-05-17T08:21:35.146Z,27.40
2019-05-17T08:22:35.132Z,26.40
2019-05-17T08:23:35.142Z,27.20
2019-05-17T08:24:35.106Z,28.40
2019-05-17T08:25:48.756Z,27.90
2019-05-17T08:26:36.086Z,32.40
2019-05-17T08:27:35.081Z,27.20
2019-05-17T08:28:35.097Z,30.50
2019-05-17T08:29:35.054Z,28.10
2019-05-17T08:30:35.045Z,28.40
2019-05-17T08:31:35.030Z,27.10
2019-05-17T08:32:35.020Z,27.70
2019-05-17T08:33:35.041Z,27.90
2019-05-17T08:34:35.008Z,27.60
2019-05-17T08:35:34.987Z,28.10
2019-05-17T08:36:34.983Z,28.40
2019-05-17T08:37:34.966Z,30.00
2019-05-17T08:38:34.984Z,28.10
2019-05-17T08:39:34.952Z,28.80
2019-05-17T08:40:34.935Z,28.20
2019-05-17T08:41:34.923Z,27.00
2019-05-17T08:42:34.922Z,28.30
2019-05-17T08:43:43.095Z,24.70
2019-05-17T08:44:35.901Z,25.50
2019-05-17T08:45:34.887Z,25.00
2019-05-17T08:46:34.873Z,25.00
2019-05-17T08:47:34.859Z,24.90
2019-05-17T08:48:34.879Z,25.10
2019-05-17T08:49:34.838Z,23.30
2019-05-17T08:50:34.831Z,25.60
2019-05-17T08:51:34.826Z,25.10
2019-05-17T08:52:34.806Z,22.70
2019-05-17T08:53:44.327Z,24.20
2019-05-17T08:54:34.788Z,23.60
2019-05-17T08:55:34.779Z,20.50
2019-05-17T08:56:34.778Z,21.30
2019-05-17T08:57:34.765Z,22.20
2019-05-17T08:58:34.770Z,20.90
2019-05-17T08:59:34.731Z,19.20
2019-05-17T09:00:34.727Z,19.10
2019-05-17T09:01:34.716Z,20.40
2019-05-17T09:02:34.701Z,19.50
2019-05-17T09:03:34.719Z,19.00
2019-05-17T09:04:34.685Z,19.80
2019-05-17T09:05:34.699Z,20.40
2019-05-17T09:06:34.661Z,21.40
2019-05-17T09:07:34.646Z,20.20
2019-05-17T09:08:34.674Z,20.50
2019-05-17T09:09:34.651Z,22.40
2019-05-17T09:10:34.615Z,21.10
2019-05-17T09:11:34.603Z,19.10
2019-05-17T09:12:34.601Z,17.30
2019-05-17T09:13:35.140Z,18.20
2019-05-17T09:14:34.578Z,17.30
2019-05-17T09:15:34.564Z,18.10
2019-05-17T09:16:34.550Z,17.40
2019-05-17T09:17:34.539Z,19.20
2019-05-17T09:18:34.530Z,18.50
2019-05-17T09:19:34.558Z,19.70
2019-05-17T09:20:34.512Z,19.90
2019-05-17T09:21:34.504Z,20.10
2019-05-17T09:22:34.487Z,20.20
2019-05-17T09:23:34.483Z,20.80
2019-05-17T09:24:34.490Z,20.60
2019-05-17T09:25:34.480Z,21.20
2019-05-17T09:26:34.508Z,24.40
2019-05-17T09:27:34.452Z,22.00
2019-05-17T09:28:34.422Z,21.30
2019-05-17T09:29:34.461Z,22.80
2019-05-17T09:30:34.402Z,22.10
2019-05-17T09:31:34.392Z,22.50
2019-05-17T09:32:34.392Z,21.10
2019-05-17T09:33:34.371Z,22.70
2019-05-17T09:34:34.391Z,22.20
2019-05-17T09:35:34.353Z,22.50
2019-05-17T09:36:34.335Z,23.40
2019-05-17T09:37:34.328Z,24.70
2019-05-17T09:38:34.325Z,23.40
2019-05-17T09:39:34.335Z,22.50
2019-05-17T09:40:34.295Z,24.90
2019-05-17T09:41:34.286Z,23.90
2019-05-17T09:42:34.271Z,23.50
2019-05-17T09:43:34.263Z,20.50
2019-05-17T09:44:34.283Z,21.40
2019-05-17T09:45:34.246Z,22.00
2019-05-17T09:46:34.251Z,24.30
2019-05-17T09:47:34.218Z,22.90
2019-05-17T09:48:34.211Z,22.80
2019-05-17T09:49:34.227Z,24.20
2019-05-17T09:50:34.201Z,23.30
2019-05-17T09:51:34.180Z,25.30
2019-05-17T09:52:34.173Z,26.20
2019-05-17T09:53:34.159Z,23.10
2019-05-17T09:54:42.346Z,22.70
2019-05-17T09:55:35.531Z,25.70
2019-05-17T09:56:34.134Z,23.90
2019-05-17T09:57:34.114Z,24.90
2019-05-17T09:58:34.104Z,25.20
2019-05-17T09:59:34.131Z,24.30
2019-05-17T10:00:34.082Z,26.90
2019-05-17T10:01:34.105Z,25.50
2019-05-17T10:02:34.063Z,26.80
2019-05-17T10:03:34.055Z,23.20
2019-05-17T10:04:34.043Z,25.40
2019-05-17T10:05:34.066Z,23.80
2019-05-17T10:06:34.020Z,23.50
2019-05-17T10:07:34.012Z,25.10
2019-05-17T10:08:33.996Z,23.50
2019-05-17T10:09:33.987Z,24.10
2019-05-17T10:10:34.005Z,24.10
2019-05-17T10:11:33.966Z,24.90
2019-05-17T10:12:33.954Z,25.30
2019-05-17T10:13:33.948Z,26.10
2019-05-17T10:14:33.933Z,25.20
2019-05-17T10:15:33.950Z,26.50
2019-05-17T10:16:33.911Z,26.30
2019-05-17T10:17:33.898Z,25.10
2019-05-17T10:18:33.896Z,27.90
2019-05-17T10:19:33.882Z,29.60
2019-05-17T10:20:33.897Z,27.50
2019-05-17T10:21:33.856Z,28.70
2019-05-17T10:22:33.849Z,27.80
2019-05-17T10:23:33.836Z,27.00
2019-05-17T10:24:41.577Z,27.20
2019-05-17T10:25:34.848Z,27.40
2019-05-17T10:26:33.807Z,28.70
2019-05-17T10:27:33.797Z,27.90
2019-05-17T10:28:33.784Z,28.10
2019-05-17T10:29:33.770Z,26.00
2019-05-17T10:30:33.786Z,26.90
2019-05-17T10:31:33.753Z,28.70
2019-05-17T10:32:33.738Z,27.80
2019-05-17T10:33:33.730Z,26.80
2019-05-17T10:34:33.718Z,26.30
2019-05-17T10:35:33.732Z,26.80
2019-05-17T10:36:33.707Z,25.90
2019-05-17T10:37:33.687Z,26.40
2019-05-17T10:38:33.674Z,25.00
2019-05-17T10:39:33.667Z,26.40
2019-05-17T10:40:33.655Z,28.00
2019-05-17T10:41:33.672Z,26.00
2019-05-17T10:42:33.655Z,26.00
2019-05-17T10:43:33.624Z,27.10
2019-05-17T10:44:44.353Z,26.10
2019-05-17T10:45:34.604Z,25.50
2019-05-17T10:46:33.624Z,25.30
2019-05-17T10:47:33.583Z,25.10
2019-05-17T10:48:33.576Z,27.50
2019-05-17T10:49:33.560Z,22.90
2019-05-17T10:50:33.558Z,23.70
2019-05-17T10:51:33.593Z,22.10
2019-05-17T10:52:33.530Z,24.00
2019-05-17T10:53:33.523Z,20.70
2019-05-17T10:54:33.507Z,23.00
2019-05-17T10:55:33.499Z,20.50
2019-05-17T10:56:33.511Z,22.60
2019-05-17T10:57:33.480Z,20.70
2019-05-17T10:58:33.464Z,21.60
2019-05-17T10:59:33.456Z,19.70
2019-05-17T11:00:33.443Z,18.60
2019-05-17T11:01:33.460Z,17.70
2019-05-17T11:02:33.424Z,17.60
2019-05-17T11:03:33.411Z,16.60
2019-05-17T11:04:33.402Z,17.70
2019-05-17T11:05:33.395Z,17.10
2019-05-17T11:06:33.413Z,17.00
2019-05-17T11:07:33.374Z,16.10
2019-05-17T11:08:33.385Z,15.70
2019-05-17T11:09:33.348Z,16.70
2019-05-17T11:10:33.338Z,16.30
2019-05-17T11:11:33.358Z,15.60
2019-05-17T11:12:33.317Z,15.70
2019-05-17T11:13:33.307Z,13.80
2019-05-17T11:14:33.298Z,13.80
2019-05-17T11:15:33.288Z,15.40
2019-05-17T11:16:33.298Z,16.10
2019-05-17T11:17:33.266Z,15.20
2019-05-17T11:18:33.253Z,16.40
2019-05-17T11:19:33.246Z,17.40
2019-05-17T11:20:33.235Z,15.60
2019-05-17T11:21:33.253Z,14.90
2019-05-17T11:22:33.214Z,15.40
2019-05-17T11:23:33.199Z,14.70
2019-05-17T11:24:33.194Z,14.10
2019-05-17T11:25:33.186Z,13.30
2019-05-17T11:26:33.194Z,13.00
2019-05-17T11:27:33.158Z,13.90
2019-05-17T11:28:33.158Z,13.20
2019-05-17T11:29:33.143Z,13.30
2019-05-17T11:30:33.130Z,13.50
2019-05-17T11:31:33.142Z,13.80
2019-05-17T11:32:33.124Z,13.80
2019-05-17T11:33:33.097Z,14.70
2019-05-17T11:34:33.096Z,14.30
2019-05-17T11:35:33.078Z,13.30
2019-05-17T11:36:33.126Z,13.40
2019-05-17T11:37:33.062Z,13.40
2019-05-17T11:38:33.050Z,13.30
2019-05-17T11:39:33.037Z,13.30
2019-05-17T11:40:33.035Z,14.30
2019-05-17T11:41:33.044Z,13.60
2019-05-17T11:42:33.041Z,12.50
2019-05-17T11:43:33.002Z,12.80
2019-05-17T11:44:32.980Z,13.10
2019-05-17T11:45:33.144Z,12.40
2019-05-17T11:46:36.158Z,13.70
2019-05-17T11:47:32.979Z,13.90
2019-05-17T11:48:32.939Z,14.40
2019-05-17T11:49:32.927Z,14.80
2019-05-17T11:50:32.939Z,13.50
2019-05-17T11:51:32.933Z,15.30
2019-05-17T11:52:32.903Z,14.30
2019-05-17T11:53:32.885Z,14.10
2019-05-17T11:54:32.883Z,14.40
2019-05-17T11:55:32.863Z,13.60
2019-05-17T11:56:32.882Z,15.50
2019-05-17T11:57:32.858Z,14.90
2019-05-17T11:58:32.835Z,14.00
2019-05-17T11:59:32.825Z,13.50
2019-05-17T12:00:32.821Z,15.10
2019-05-17T12:01:32.833Z,13.90
2019-05-17T12:02:32.794Z,14.20
2019-05-17T12:03:32.784Z,13.70
2019-05-17T12:04:32.776Z,13.20
2019-05-17T12:05:32.764Z,14.30
2019-05-17T12:06:32.774Z,13.40
2019-05-17T12:07:32.747Z,12.50
2019-05-17T12:08:32.731Z,14.10
2019-05-17T12:09:37.410Z,13.00
2019-05-17T12:10:33.733Z,13.00
2019-05-17T12:11:32.743Z,14.70
2019-05-17T12:12:32.694Z,15.10
2019-05-17T12:13:32.680Z,13.70
2019-05-17T12:14:32.674Z,12.40
2019-05-17T12:15:44.392Z,12.40
2019-05-17T12:16:33.671Z,11.10
2019-05-17T12:17:32.656Z,11.20
2019-05-17T12:18:32.627Z,12.20
2019-05-17T12:19:32.614Z,12.10
2019-05-17T12:20:32.608Z,12.50
2019-05-17T12:21:32.628Z,12.60
2019-05-17T12:22:32.588Z,11.90
2019-05-17T12:23:32.575Z,11.50
2019-05-17T12:24:32.569Z,11.00
2019-05-17T12:25:32.551Z,10.80
2019-05-17T12:26:32.567Z,10.90
2019-05-17T12:27:32.531Z,10.90
2019-05-17T12:28:32.530Z,11.20
2019-05-17T12:29:32.511Z,11.00
2019-05-17T12:30:32.503Z,10.80
2019-05-17T12:31:32.528Z,10.10
2019-05-17T12:32:32.484Z,10.60
2019-05-17T12:33:32.474Z,10.50
2019-05-17T12:34:32.464Z,9.70
2019-05-17T12:35:32.451Z,10.00
2019-05-17T12:36:32.477Z,10.30
2019-05-17T12:37:32.442Z,11.00
2019-05-17T12:38:32.425Z,10.80
2019-05-17T12:39:32.413Z,11.90
2019-05-17T12:40:32.399Z,11.50
2019-05-17T12:41:32.446Z,12.20
2019-05-17T12:42:32.380Z,11.40
2019-05-17T12:43:32.371Z,11.70
2019-05-17T12:44:32.359Z,12.10
2019-05-17T12:45:32.352Z,11.90
2019-05-17T12:46:32.370Z,11.80
2019-05-17T12:47:32.328Z,11.10
2019-05-17T12:48:32.320Z,10.60
2019-05-17T12:49:32.306Z,10.90
2019-05-17T12:50:32.299Z,11.00
2019-05-17T12:51:33.006Z,11.50